Time;durP1;ratioP1;P1;durP2;ratioP2;P2;SDS_P1;SDS_P2;PMS_P1;PMS_P2;Temp;Humidity;BMP_temperature;BMP_pressure;BME280_temperature;BME280_humidity;BME280_pressure;Samples;Min_cycle;Max_cycle;Signal;HPM_P1;HPM_P2
2022/07/14 00:01:15;;;;;;;2.07;1.87;;;20.40;99.90;;;;;;5034315;28;20219;-65
2022/07/14 00:03:40;;;;;;;6.77;2.47;;;20.30;99.90;;;;;;5034261;28;20247;-64
2022/07/14 00:06:06;;;;;;;2.17;1.90;;;20.30;99.90;;;;;;5033886;28;20183;-66
2022/07/14 00:08:31;;;;;;;5.47;2.80;;;20.20;99.90;;;;;;5034149;28;20171;-66
2022/07/14 00:10:57;;;;;;;3.20;2.13;;;20.10;99.90;;;;;;5034104;28;20190;-66
2022/07/14 00:13:23;;;;;;;2.40;2.20;;;20.10;99.90;;;;;;5034064;28;20459;-66
2022/07/14 00:15:48;;;;;;;3.23;2.70;;;20.10;99.90;;;;;;5033790;28;20214;-65
2022/07/14 00:18:14;;;;;;;2.00;1.80;;;20.00;99.90;;;;;;5033932;28;20164;-65
2022/07/14 00:20:39;;;;;;;3.00;2.70;;;19.90;99.90;;;;;;5033836;28;20168;-65
2022/07/14 00:23:05;;;;;;;3.43;2.60;;;19.90;99.90;;;;;;5033929;28;20206;-65
2022/07/14 00:25:30;;;;;;;2.17;2.07;;;19.90;99.90;;;;;;5033634;28;20605;-66
2022/07/14 00:27:57;;;;;;;2.20;2.10;;;19.80;99.90;;;;;;5033972;28;20190;-66
2022/07/14 00:30:22;;;;;;;2.87;2.00;;;19.80;99.90;;;;;;5033956;28;20178;-66
2022/07/14 00:32:48;;;;;;;2.40;2.20;;;19.70;99.90;;;;;;5034088;28;20776;-66
2022/07/14 00:35:15;;;;;;;2.30;2.10;;;19.70;99.90;;;;;;5033485;28;20225;-65
2022/07/14 00:37:40;;;;;;;2.37;2.17;;;19.60;99.90;;;;;;5033350;28;20179;-67
2022/07/14 00:40:07;;;;;;;3.27;2.47;;;19.50;99.90;;;;;;5033294;28;20415;-65
2022/07/14 00:42:37;;;;;;;2.73;2.07;;;19.50;99.90;;;;;;5033206;28;20651;-64
2022/07/14 00:45:08;;;;;;;3.23;2.50;;;19.40;99.90;;;;;;5032984;28;20438;-65
2022/07/14 00:47:34;;;;;;;2.90;2.60;;;19.40;99.90;;;;;;5033301;28;20407;-65
2022/07/14 00:50:00;;;;;;;3.63;2.17;;;19.30;99.90;;;;;;5033275;28;20451;-65
2022/07/14 00:52:27;;;;;;;6.77;2.27;;;19.30;99.90;;;;;;5033333;28;20428;-66
2022/07/14 00:57:21;;;;;;;2.60;2.40;;;19.20;99.90;;;;;;4994380;28;20458;-74
2022/07/14 00:59:47;;;;;;;2.23;1.87;;;19.10;99.90;;;;;;4995604;28;20403;-73
2022/07/14 01:02:14;;;;;;;2.17;1.97;;;19.10;99.90;;;;;;4995331;28;20196;-73
2022/07/14 01:04:39;;;;;;;2.67;2.30;;;19.10;99.90;;;;;;4994315;28;20953;-73
2022/07/14 01:07:05;;;;;;;2.57;2.37;;;19.00;99.90;;;;;;4995541;28;20459;-74
2022/07/14 01:09:31;;;;;;;3.47;2.50;;;19.00;99.90;;;;;;4995420;28;20700;-73
2022/07/14 01:11:56;;;;;;;3.10;2.00;;;19.00;99.90;;;;;;4993995;28;20174;-73
2022/07/14 01:14:22;;;;;;;2.17;1.97;;;18.90;99.90;;;;;;4995181;28;20169;-73
2022/07/14 01:16:53;;;;;;;2.10;1.90;;;18.90;99.90;;;;;;4995235;28;20217;-73
2022/07/14 01:19:19;;;;;;;1.87;1.77;;;18.80;99.90;;;;;;4995170;28;20185;-74
2022/07/14 01:21:45;;;;;;;3.27;2.27;;;18.80;99.90;;;;;;4995086;28;20957;-73
2022/07/14 01:24:11;;;;;;;2.93;2.50;;;18.70;99.90;;;;;;4995025;28;20416;-73
2022/07/14 01:26:36;;;;;;;5.03;2.57;;;18.70;99.90;;;;;;4994888;28;20188;-74
2022/07/14 01:29:02;;;;;;;2.33;1.70;;;18.60;99.90;;;;;;4994875;28;20170;-73
2022/07/14 01:31:27;;;;;;;2.27;1.60;;;18.50;99.90;;;;;;4994873;28;20177;-73
2022/07/14 01:33:53;;;;;;;2.47;1.70;;;18.50;99.90;;;;;;4994812;28;20165;-73
2022/07/14 01:36:18;;;;;;;2.30;2.10;;;18.50;99.90;;;;;;4994626;28;20670;-73
2022/07/14 01:38:44;;;;;;;1.87;1.77;;;18.40;99.90;;;;;;4994682;28;20181;-73
2022/07/14 01:41:09;;;;;;;1.83;1.70;;;18.40;99.90;;;;;;4994587;28;20627;-73
2022/07/14 01:43:35;;;;;;;1.70;1.60;;;18.30;99.90;;;;;;4994894;28;20288;-73
2022/07/14 01:46:01;;;;;;;1.73;1.63;;;18.30;99.90;;;;;;4994515;28;20192;-73
2022/07/14 01:48:26;;;;;;;1.80;1.70;;;18.30;99.90;;;;;;4994591;28;20466;-73
2022/07/14 01:50:52;;;;;;;1.77;1.50;;;18.20;99.90;;;;;;4994614;28;20177;-74
2022/07/14 01:53:17;;;;;;;1.60;1.50;;;18.10;99.90;;;;;;4994455;28;20169;-74
2022/07/14 01:55:43;;;;;;;2.80;2.07;;;18.10;99.90;;;;;;4994227;28;20265;-74
2022/07/14 01:58:09;;;;;;;2.20;1.70;;;18.00;99.90;;;;;;4994392;28;20209;-73
2022/07/14 02:00:35;;;;;;;2.20;1.93;;;18.00;99.90;;;;;;4994426;28;20254;-73
2022/07/14 02:03:01;;;;;;;1.87;1.77;;;18.00;99.90;;;;;;4994244;28;20486;-74
2022/07/14 02:05:27;;;;;;;2.07;1.60;;;17.90;99.90;;;;;;4994276;28;20484;-74
2022/07/14 02:07:53;;;;;;;1.60;1.30;;;17.80;99.90;;;;;;4994373;28;20246;-73
2022/07/14 02:13:03;;;;;;;2.50;1.40;;;17.80;99.90;;;;;;4994191;28;20413;-74
2022/07/14 02:15:28;;;;;;;4.40;1.90;;;17.70;99.90;;;;;;4993702;28;20475;-74
2022/07/14 02:17:54;;;;;;;2.07;1.40;;;17.70;99.90;;;;;;4994346;28;20589;-74
2022/07/14 02:20:20;;;;;;;2.60;1.63;;;17.60;99.90;;;;;;4994186;28;20183;-73
2022/07/14 02:22:45;;;;;;;3.53;1.50;;;17.50;99.90;;;;;;4993991;28;20550;-73
2022/07/14 02:25:12;;;;;;;0.97;0.93;;;17.50;99.90;;;;;;4993854;28;20558;-74
2022/07/14 02:27:38;;;;;;;1.50;1.40;;;17.40;99.90;;;;;;4993788;28;20222;-74
2022/07/14 02:30:04;;;;;;;1.50;1.20;;;17.30;99.90;;;;;;4993916;28;20438;-74
2022/07/14 02:32:31;;;;;;;1.90;1.00;;;17.30;99.90;;;;;;4993713;28;20175;-73
2022/07/14 02:34:57;;;;;;;2.20;1.50;;;17.30;99.90;;;;;;4993634;28;20890;-73
2022/07/14 02:37:22;;;;;;;6.43;1.87;;;17.20;99.90;;;;;;4993678;28;20414;-73
2022/07/14 02:39:48;;;;;;;2.50;1.50;;;17.10;99.90;;;;;;4993535;28;20472;-73
2022/07/14 02:42:14;;;;;;;1.90;1.17;;;17.10;99.90;;;;;;4993501;28;20203;-72
2022/07/14 02:44:39;;;;;;;1.43;1.17;;;17.00;99.90;;;;;;4993556;28;20729;-72
2022/07/14 02:47:05;;;;;;;1.60;1.40;;;17.00;99.90;;;;;;4993739;28;20530;-72
2022/07/14 02:49:30;;;;;;;5.43;2.10;;;16.90;99.90;;;;;;4992702;28;20198;-73
2022/07/14 02:51:56;;;;;;;2.30;1.10;;;16.90;99.90;;;;;;4993455;28;20170;-74
2022/07/14 02:54:22;;;;;;;2.03;1.40;;;16.90;99.90;;;;;;4993514;28;20232;-73
2022/07/14 02:56:47;;;;;;;5.07;1.80;;;16.80;99.90;;;;;;4993178;28;20223;-73
2022/07/14 02:59:13;;;;;;;2.50;1.43;;;16.70;99.90;;;;;;4993324;28;20180;-73
2022/07/14 03:01:38;;;;;;;2.33;1.40;;;16.60;99.90;;;;;;4993153;28;20198;-73
2022/07/14 03:04:04;;;;;;;1.47;1.27;;;16.60;99.90;;;;;;4993410;28;20228;-74
2022/07/14 03:06:29;;;;;;;3.97;1.37;;;16.50;99.90;;;;;;4993279;28;20196;-73
2022/07/14 03:08:55;;;;;;;1.93;1.30;;;16.50;99.90;;;;;;4993298;28;20639;-73
2022/07/14 03:11:21;;;;;;;2.93;1.60;;;16.40;99.90;;;;;;4993346;28;20185;-74
2022/07/14 03:13:46;;;;;;;3.80;1.40;;;16.40;99.90;;;;;;4993474;28;20421;-73
2022/07/14 03:16:12;;;;;;;4.90;1.60;;;16.30;99.90;;;;;;4993215;28;20702;-74
2022/07/14 03:18:39;;;;;;;3.77;1.57;;;16.30;99.90;;;;;;4992992;28;20177;-73
2022/07/14 03:21:12;;;;;;;9.87;1.63;;;16.30;99.90;;;;;;4993002;28;20169;-73
2022/07/14 03:23:37;;;;;;;2.13;1.40;;;16.30;99.90;;;;;;4992965;28;20426;-73
2022/07/14 03:26:03;;;;;;;2.00;1.37;;;16.30;99.90;;;;;;4991948;28;20469;-73
2022/07/14 03:28:29;;;;;;;5.73;1.50;;;16.20;99.90;;;;;;4993494;28;20177;-74
2022/07/14 03:30:59;;;;;;;2.33;1.30;;;16.20;99.90;;;;;;4992901;28;20455;-73
2022/07/14 03:33:24;;;;;;;2.90;1.50;;;16.20;99.90;;;;;;4993436;28;20231;-73
2022/07/14 03:35:50;;;;;;;5.87;1.60;;;16.10;99.90;;;;;;4993009;28;20436;-74
2022/07/14 03:38:16;;;;;;;4.90;1.87;;;16.10;99.90;;;;;;4994453;28;20187;-74
2022/07/14 03:40:42;;;;;;;2.70;1.60;;;16.10;99.90;;;;;;4994087;28;20256;-73
2022/07/14 03:43:08;;;;;;;3.67;2.23;;;16.00;99.90;;;;;;4993272;28;20543;-74
2022/07/14 03:45:33;;;;;;;5.00;2.07;;;16.00;99.90;;;;;;4993327;28;20246;-74
2022/07/14 03:47:59;;;;;;;4.30;1.50;;;16.00;99.90;;;;;;4994007;28;20546;-73
2022/07/14 03:51:10;;;;;;;3.93;2.13;;;16.00;99.90;;;;;;4994023;28;20188;-74
2022/07/14 03:53:16;;;;;;;3.93;1.20;;;16.00;99.90;;;;;;4995396;28;20539;-73
2022/07/14 03:55:42;;;;;;;1.17;1.07;;;15.90;99.90;;;;;;4992512;28;20489;-74
2022/07/14 03:58:08;;;;;;;3.13;1.90;;;15.90;99.90;;;;;;4993043;28;20170;-74
2022/07/14 04:00:34;;;;;;;3.23;1.40;;;15.80;99.90;;;;;;4992893;28;20408;-73
2022/07/14 04:02:59;;;;;;;2.63;1.90;;;15.80;99.90;;;;;;4992461;28;20206;-73
2022/07/14 04:05:25;;;;;;;4.80;1.63;;;15.80;99.90;;;;;;4992443;28;20197;-73
2022/07/14 04:07:51;;;;;;;2.13;1.10;;;15.80;99.90;;;;;;4992618;28;20181;-73
2022/07/14 04:10:16;;;;;;;1.87;1.60;;;15.70;99.90;;;;;;4992446;28;20169;-74
2022/07/14 04:12:42;;;;;;;3.00;1.23;;;15.70;99.90;;;;;;4992676;28;20228;-74
2022/07/14 04:15:08;;;;;;;2.17;1.30;;;15.80;99.90;;;;;;4992230;28;20178;-74
2022/07/14 04:17:34;;;;;;;7.60;1.90;;;15.80;99.90;;;;;;4992459;28;20169;-74
2022/07/14 04:19:59;;;;;;;3.03;1.67;;;15.80;99.90;;;;;;4992720;28;20780;-74
2022/07/14 04:22:25;;;;;;;1.83;1.30;;;15.70;99.90;;;;;;4992835;28;20251;-74
2022/07/14 04:24:50;;;;;;;6.63;2.00;;;15.80;99.90;;;;;;4992342;28;20209;-73
2022/07/14 04:27:16;;;;;;;2.00;1.30;;;15.80;99.90;;;;;;4990938;28;20189;-73
2022/07/14 04:29:42;;;;;;;2.07;1.10;;;15.80;99.90;;;;;;4992364;28;20178;-73
2022/07/14 04:32:08;;;;;;;1.33;1.23;;;16.40;99.90;;;;;;4993191;28;20189;-74
2022/07/14 04:34:34;;;;;;;3.63;1.77;;;17.00;99.90;;;;;;4992830;28;20175;-73
2022/07/14 04:37:00;;;;;;;6.10;1.87;;;17.70;99.90;;;;;;4992484;28;20215;-73
2022/07/14 04:39:26;;;;;;;7.30;1.40;;;18.10;99.90;;;;;;4995734;28;20411;-73
2022/07/14 04:41:52;;;;;;;1.57;1.30;;;18.60;99.90;;;;;;4996105;28;20455;-73
2022/07/14 04:44:17;;;;;;;3.40;1.20;;;18.50;99.90;;;;;;4995932;28;20678;-74
2022/07/14 04:46:43;;;;;;;1.50;0.90;;;18.80;99.90;;;;;;4995833;28;20279;-73
2022/07/14 04:52:02;;;;;;;3.50;1.10;;;18.70;99.90;;;;;;4995794;28;20163;-73
2022/07/14 04:54:28;;;;;;;3.83;1.77;;;18.40;99.90;;;;;;4995557;28;20414;-73
2022/07/14 04:56:54;;;;;;;4.70;1.67;;;18.40;99.90;;;;;;4995470;28;20448;-73
2022/07/14 04:59:20;;;;;;;7.23;1.30;;;17.90;99.90;;;;;;4995668;28;20839;-72
2022/07/14 05:01:45;;;;;;;1.10;1.00;;;18.50;99.90;;;;;;4995586;28;20234;-72
2022/07/14 05:04:11;;;;;;;1.47;1.37;;;18.90;99.90;;;;;;4995615;28;20413;-74
2022/07/14 05:06:36;;;;;;;2.53;1.10;;;19.10;99.90;;;;;;4995107;28;20537;-73
2022/07/14 05:09:02;;;;;;;2.80;2.40;;;19.70;99.90;;;;;;4995515;28;20318;-73
2022/07/14 05:11:28;;;;;;;5.40;1.30;;;20.00;99.90;;;;;;4995370;28;20178;-74
2022/07/14 05:13:53;;;;;;;4.70;1.20;;;19.80;99.90;;;;;;4995638;28;20471;-74
2022/07/14 05:16:19;;;;;;;4.60;2.37;;;20.70;99.90;;;;;;4995285;28;20196;-75
2022/07/14 05:18:46;;;;;;;3.00;2.43;;;21.20;99.90;;;;;;4996331;28;20186;-73
2022/07/14 05:21:12;;;;;;;4.17;2.07;;;20.60;99.90;;;;;;4995304;28;20466;-75
2022/07/14 05:23:37;;;;;;;9.33;2.33;;;20.60;99.90;;;;;;4995207;28;20435;-74
2022/07/14 05:26:09;;;;;;;5.33;1.47;;;20.40;99.90;;;;;;4995038;28;20253;-74
2022/07/14 05:28:34;;;;;;;2.80;1.23;;;20.50;99.90;;;;;;4994909;28;20179;-74
2022/07/14 05:31:00;;;;;;;2.63;1.50;;;20.10;99.90;;;;;;4994750;28;20753;-75
2022/07/14 05:33:26;;;;;;;6.70;1.60;;;20.80;99.90;;;;;;4994762;28;20169;-74
2022/07/14 05:35:51;;;;;;;1.30;0.87;;;20.90;99.90;;;;;;4994684;28;20199;-73
2022/07/14 05:38:17;;;;;;;1.43;1.20;;;21.30;99.90;;;;;;4994535;28;20173;-72
2022/07/14 05:40:42;;;;;;;3.30;1.23;;;21.60;99.90;;;;;;4994601;28;20286;-73
2022/07/14 05:43:08;;;;;;;3.23;1.53;;;22.20;99.90;;;;;;4994560;28;20278;-72
2022/07/14 05:45:34;;;;;;;2.03;1.17;;;22.00;99.90;;;;;;4994864;28;20187;-72
2022/07/14 05:47:59;;;;;;;2.70;1.00;;;22.00;99.90;;;;;;4994912;28;20694;-72
2022/07/14 05:50:25;;;;;;;3.30;2.00;;;22.60;99.90;;;;;;4994077;28;20174;-74
2022/07/14 05:52:51;;;;;;;9.07;1.73;;;22.20;99.90;;;;;;4995110;28;20262;-73
2022/07/14 05:55:16;;;;;;;3.10;1.37;;;21.20;99.90;;;;;;4994354;28;20206;-73
2022/07/14 05:57:42;;;;;;;3.07;1.20;;;21.40;99.90;;;;;;4994445;28;20573;-73
2022/07/14 06:00:08;;;;;;;5.13;1.70;;;21.10;99.90;;;;;;4994613;28;20255;-73
2022/07/14 06:02:34;;;;;;;5.33;1.73;;;21.70;99.90;;;;;;4994119;28;20196;-73
2022/07/14 06:05:00;;;;;;;3.23;1.50;;;21.70;99.90;;;;;;4994315;28;20412;-74
2022/07/14 06:07:25;;;;;;;3.70;1.53;;;21.50;99.90;;;;;;4994255;28;20258;-72
2022/07/14 06:09:51;;;;;;;2.10;0.87;;;22.80;99.90;;;;;;4994806;28;20179;-72
2022/07/14 06:12:16;;;;;;;1.87;1.30;;;22.10;99.90;;;;;;4994372;28;20524;-73
2022/07/14 06:14:43;;;;;;;1.60;1.20;;;22.30;99.90;;;;;;4994161;28;20603;-73
2022/07/14 06:17:09;;;;;;;4.73;1.27;;;23.30;99.90;;;;;;4993805;28;20484;-72
2022/07/14 06:19:35;;;;;;;5.80;1.60;;;23.90;99.90;;;;;;4994090;28;20420;-72
2022/07/14 06:22:05;;;;;;;1.50;1.20;;;23.30;99.90;;;;;;4993772;28;20982;-72
2022/07/14 06:24:32;;;;;;;2.67;1.27;;;23.20;99.90;;;;;;4992461;28;20456;-72
2022/07/14 06:26:57;;;;;;;3.77;1.30;;;24.60;99.90;;;;;;4993698;28;20420;-72
2022/07/14 06:29:23;;;;;;;3.50;1.10;;;24.00;99.90;;;;;;4993620;28;20427;-72
2022/07/14 06:31:51;;;;;;;3.30;1.30;;;23.00;99.90;;;;;;4993652;28;20173;-74
2022/07/14 06:34:16;;;;;;;2.20;1.10;;;22.90;99.90;;;;;;4993373;28;20710;-73
2022/07/14 06:36:42;;;;;;;2.63;1.43;;;24.20;99.90;;;;;;4993666;28;20503;-73
2022/07/14 06:39:07;;;;;;;3.70;1.10;;;23.90;99.90;;;;;;4993390;28;20754;-73
2022/07/14 06:41:33;;;;;;;1.80;1.07;;;24.50;99.60;;;;;;4993609;28;20226;-73
2022/07/14 06:43:59;;;;;;;3.77;1.30;;;22.80;99.90;;;;;;4993452;28;20183;-73
2022/07/14 06:46:24;;;;;;;4.00;1.20;;;23.50;99.90;;;;;;4993543;28;20542;-73
2022/07/14 06:48:50;;;;;;;4.93;1.27;;;23.60;98.90;;;;;;4993607;28;20180;-72
2022/07/14 06:51:15;;;;;;;2.20;1.47;;;23.30;99.40;;;;;;4993277;28;20200;-72
2022/07/14 06:53:41;;;;;;;5.20;1.30;;;23.60;99.00;;;;;;4993351;28;20161;-73
2022/07/14 06:56:07;;;;;;;1.97;1.00;;;24.30;98.30;;;;;;5017314;23;20278;-65
2022/07/14 06:58:33;;;;;;;3.63;1.50;;;24.50;97.10;;;;;;5011748;28;20649;-65
2022/07/14 07:00:58;;;;;;;1.90;1.47;;;23.90;97.50;;;;;;5012147;28;20500;-65
2022/07/14 07:03:24;;;;;;;1.50;1.00;;;23.40;98.90;;;;;;5011751;28;20203;-65
2022/07/14 07:08:33;;;;;;;1.70;1.10;;;23.00;97.50;;;;;;5012062;28;20202;-64
2022/07/14 07:10:59;;;;;;;2.20;0.80;;;23.70;95.80;;;;;;5011857;28;20522;-64
2022/07/14 07:13:29;;;;;;;4.03;1.23;;;23.40;95.90;;;;;;5011841;28;20180;-64
2022/07/14 07:15:54;;;;;;;1.73;0.80;;;24.00;94.90;;;;;;5011065;28;20196;-64
2022/07/14 07:18:20;;;;;;;2.63;1.43;;;23.90;93.80;;;;;;5011058;28;20472;-65
2022/07/14 07:20:45;;;;;;;2.00;1.07;;;23.50;93.70;;;;;;5010973;28;20622;-64
2022/07/14 07:23:11;;;;;;;2.83;1.20;;;24.00;94.10;;;;;;5010998;28;20227;-65
2022/07/14 07:25:37;;;;;;;2.90;0.90;;;23.90;91.70;;;;;;5010678;28;20184;-65
2022/07/14 07:28:03;;;;;;;1.50;0.83;;;24.50;92.90;;;;;;5010804;28;20168;-65
2022/07/14 07:30:29;;;;;;;2.60;1.00;;;24.60;91.50;;;;;;5011048;28;20326;-65
2022/07/14 07:32:55;;;;;;;2.40;1.03;;;24.40;93.10;;;;;;5010622;28;20411;-64
2022/07/14 07:35:21;;;;;;;2.13;1.13;;;25.20;89.90;;;;;;5010356;28;20421;-65
2022/07/14 07:37:47;;;;;;;2.60;1.30;;;24.20;90.70;;;;;;4993323;28;20395;-65
2022/07/14 07:40:14;;;;;;;2.30;1.00;;;24.90;91.00;;;;;;5010709;28;20172;-64
2022/07/14 07:42:40;;;;;;;1.50;0.80;;;26.60;88.30;;;;;;5010970;28;20478;-65
2022/07/14 07:45:07;;;;;;;3.50;0.93;;;24.60;89.00;;;;;;5010773;28;20403;-65
2022/07/14 07:47:33;;;;;;;2.87;1.10;;;25.50;88.40;;;;;;5010429;28;20435;-65
2022/07/14 07:49:59;;;;;;;1.10;0.67;;;24.70;88.70;;;;;;5010690;28;20417;-65
2022/07/14 07:52:25;;;;;;;1.43;0.90;;;26.00;89.70;;;;;;5010761;28;20415;-64
2022/07/14 07:54:50;;;;;;;1.13;0.90;;;27.40;83.10;;;;;;5010551;28;20172;-65
2022/07/14 07:57:16;;;;;;;2.90;1.00;;;25.00;86.10;;;;;;5010401;28;20249;-65
2022/07/14 07:59:41;;;;;;;1.17;0.87;;;24.10;89.10;;;;;;5010565;28;20172;-66
2022/07/14 08:02:07;;;;;;;5.30;1.07;;;24.60;84.70;;;;;;5010526;28;20191;-66
2022/07/14 08:04:33;;;;;;;1.57;0.90;;;25.40;85.90;;;;;;5010465;28;20627;-65
2022/07/14 08:06:59;;;;;;;3.83;1.20;;;25.40;84.70;;;;;;5010557;28;20277;-65
2022/07/14 08:09:24;;;;;;;2.40;1.30;;;25.70;82.20;;;;;;5010425;28;20640;-65
2022/07/14 08:11:50;;;;;;;1.03;0.93;;;25.50;85.60;;;;;;5010506;28;20552;-66
2022/07/14 08:17:01;;;;;;;1.70;1.00;;;26.90;80.30;;;;;;5014461;28;20769;-66
2022/07/14 08:19:26;;;;;;;1.33;0.80;;;27.10;79.40;;;;;;5014287;28;20439;-66
2022/07/14 08:21:52;;;;;;;2.77;1.90;;;27.20;76.70;;;;;;5013894;28;20489;-65
2022/07/14 08:24:18;;;;;;;2.30;1.07;;;26.60;77.20;;;;;;5013713;28;20161;-65
2022/07/14 08:26:45;;;;;;;2.73;1.40;;;27.40;75.60;;;;;;5013831;28;20192;-65
2022/07/14 08:29:10;;;;;;;1.20;0.90;;;28.00;72.80;;;;;;5013871;28;20410;-66
2022/07/14 08:31:36;;;;;;;1.17;0.90;;;25.30;77.80;;;;;;5013973;28;20415;-65
2022/07/14 08:34:03;;;;;;;1.57;1.13;;;24.20;79.00;;;;;;5013909;28;20254;-65
2022/07/14 08:36:28;;;;;;;2.77;1.43;;;24.00;80.50;;;;;;5013924;28;20431;-66
2022/07/14 08:38:54;;;;;;;1.57;1.00;;;25.10;77.70;;;;;;5013826;28;20490;-66
2022/07/14 08:41:19;;;;;;;2.00;0.93;;;26.00;73.80;;;;;;5013761;28;20172;-66
2022/07/14 08:43:48;;;;;;;1.40;0.63;;;25.80;72.20;;;;;;5013662;28;20198;-64
2022/07/14 08:46:15;;;;;;;1.00;0.80;;;27.10;70.40;;;;;;5013596;28;20188;-65
2022/07/14 08:48:40;;;;;;;2.77;1.23;;;27.30;72.50;;;;;;5013667;28;20406;-65
2022/07/14 08:51:07;;;;;;;2.03;1.20;;;28.10;69.50;;;;;;5013672;28;20507;-64
2022/07/14 08:53:33;;;;;;;1.67;0.77;;;25.70;71.00;;;;;;5013549;28;20242;-64
2022/07/14 08:55:59;;;;;;;1.50;0.70;;;25.00;77.50;;;;;;5013229;28;20670;-65
2022/07/14 08:58:25;;;;;;;2.87;0.87;;;25.50;75.10;;;;;;5013393;28;20828;-64
2022/07/14 09:00:52;;;;;;;2.83;0.73;;;25.50;75.40;;;;;;5013414;28;20414;-65
2022/07/14 09:03:18;;;;;;;1.20;0.80;;;25.40;77.90;;;;;;5013264;28;20708;-65
2022/07/14 09:05:44;;;;;;;1.30;0.80;;;25.20;71.60;;;;;;5013023;28;20475;-65
2022/07/14 09:08:11;;;;;;;2.60;1.10;;;25.10;72.30;;;;;;5013403;28;20164;-66
2022/07/14 09:10:39;;;;;;;3.47;1.10;;;26.30;70.70;;;;;;5013170;28;20501;-67
2022/07/14 09:13:19;;;;;;;3.93;0.90;;;26.40;68.70;;;;;;5013118;28;20411;-65
2022/07/14 09:15:45;;;;;;;2.43;0.93;;;25.40;70.80;;;;;;5012972;28;20426;-65
2022/07/14 09:18:23;;;;;;;1.90;0.90;;;25.40;73.10;;;;;;5013617;28;20413;-65
2022/07/14 09:20:52;;;;;;;1.43;0.90;;;25.00;73.40;;;;;;5013206;28;20403;-65
2022/07/14 09:23:32;;;;;;;2.57;1.20;;;26.20;70.70;;;;;;5012471;28;20537;-65
2022/07/14 09:26:11;;;;;;;1.97;0.90;;;27.90;65.30;;;;;;5012324;28;20455;-65
2022/07/14 09:28:46;;;;;;;1.03;0.70;;;27.30;66.50;;;;;;5013104;28;20414;-64
2022/07/14 09:31:22;;;;;;;1.60;0.80;;;26.80;65.30;;;;;;5013258;28;20399;-65
2022/07/14 09:33:50;;;;;;;3.83;0.90;;;26.70;68.30;;;;;;5012943;28;20426;-65
2022/07/14 09:36:35;;;;;;;2.30;1.10;;;26.70;65.10;;;;;;5012817;28;20472;-65
2022/07/14 09:39:09;;;;;;;1.27;0.90;;;25.80;64.40;;;;;;5012743;28;20948;-65
2022/07/14 09:41:55;;;;;;;1.80;0.83;;;26.00;65.40;;;;;;5012668;28;20461;-64
2022/07/14 09:44:22;;;;;;;1.97;1.70;;;26.70;66.40;;;;;;5012609;28;20469;-64
2022/07/14 09:46:57;;;;;;;1.67;0.80;;;27.10;62.50;;;;;;5013153;28;20415;-65
2022/07/14 09:49:28;;;;;;;1.10;1.00;;;24.90;67.20;;;;;;5012964;28;20407;-65
2022/07/14 09:52:06;;;;;;;0.90;0.80;;;24.90;69.80;;;;;;5012652;28;20403;-65
2022/07/14 09:54:45;;;;;;;3.27;1.23;;;24.40;66.90;;;;;;5012384;28;20901;-65
2022/07/14 09:57:13;;;;;;;3.83;0.80;;;25.60;64.90;;;;;;5012526;28;20446;-65
2022/07/14 09:59:49;;;;;;;0.90;0.70;;;25.60;65.00;;;;;;5012507;28;20411;-65
2022/07/14 10:02:18;;;;;;;6.53;0.87;;;25.70;65.60;;;;;;5012151;28;20450;-65
2022/07/14 10:04:45;;;;;;;3.17;0.77;;;26.10;66.70;;;;;;5012197;28;20844;-65
2022/07/14 10:07:12;;;;;;;1.50;0.80;;;25.80;64.50;;;;;;5012419;28;20423;-65
2022/07/14 10:09:46;;;;;;;1.40;0.70;;;24.90;64.20;;;;;;5012080;28;20432;-65
2022/07/14 10:12:12;;;;;;;1.10;0.80;;;25.40;66.00;;;;;;5012265;28;20418;-65
2022/07/14 10:14:38;;;;;;;1.73;0.90;;;24.80;67.20;;;;;;5012118;28;20391;-64
2022/07/14 10:17:04;;;;;;;0.90;0.70;;;24.90;68.10;;;;;;5012127;28;20426;-65
2022/07/14 10:19:30;;;;;;;2.73;0.97;;;25.40;62.00;;;;;;5011829;28;20560;-65
2022/07/14 10:21:58;;;;;;;0.90;0.70;;;24.50;63.50;;;;;;5011731;28;20460;-65
2022/07/14 10:24:25;;;;;;;0.70;0.70;;;24.30;65.30;;;;;;5011992;28;20876;-64
2022/07/14 10:26:53;;;;;;;2.87;0.90;;;24.10;66.10;;;;;;5011783;28;20441;-65
2022/07/14 10:29:19;;;;;;;2.40;0.83;;;24.60;65.00;;;;;;5011970;28;20495;-64
2022/07/14 10:32:18;;;;;;;2.53;2.03;;;24.50;64.40;;;;;;5011918;28;20440;-64
2022/07/14 10:34:52;;;;;;;4.27;1.13;;;24.20;66.90;;;;;;4985171;28;20928;-64
2022/07/14 10:37:34;;;;;;;1.80;0.70;;;24.10;67.50;;;;;;5011684;28;20517;-65
2022/07/14 10:40:31;;;;;;;1.63;0.77;;;24.30;66.50;;;;;;5011597;28;20413;-65
2022/07/14 10:43:04;;;;;;;2.10;0.70;;;24.00;64.70;;;;;;5011508;28;20446;-65
2022/07/14 10:45:31;;;;;;;1.03;0.70;;;23.60;65.20;;;;;;5011581;28;20425;-65
2022/07/14 10:47:57;;;;;;;0.97;0.90;;;23.60;66.70;;;;;;5011829;28;20532;-65
2022/07/14 10:50:25;;;;;;;1.03;0.80;;;23.70;66.80;;;;;;5011667;28;20483;-65
2022/07/14 10:53:05;;;;;;;2.27;0.80;;;23.40;67.40;;;;;;5011424;28;20265;-65
2022/07/14 10:55:31;;;;;;;0.80;0.70;;;23.40;67.60;;;;;;5011178;28;20403;-65
2022/07/14 10:58:00;;;;;;;0.80;0.70;;;23.00;66.70;;;;;;5011450;28;20403;-65
2022/07/14 11:00:55;;;;;;;1.00;0.90;;;23.10;67.70;;;;;;5011438;28;20537;-65
2022/07/14 11:03:32;;;;;;;1.73;1.63;;;23.60;68.50;;;;;;5011194;28;20455;-65
2022/07/14 11:06:01;;;;;;;1.43;0.90;;;23.70;68.90;;;;;;5011390;28;20422;-65
2022/07/14 11:08:28;;;;;;;1.27;0.93;;;23.10;67.10;;;;;;5011507;28;20434;-65
2022/07/14 11:10:54;;;;;;;1.10;0.80;;;22.80;67.70;;;;;;5011401;28;20426;-65
2022/07/14 11:13:20;;;;;;;1.10;0.70;;;23.30;68.60;;;;;;5010919;28;20957;-65
2022/07/14 11:15:56;;;;;;;2.57;0.80;;;23.40;67.80;;;;;;5010728;28;20517;-65
2022/07/14 11:18:28;;;;;;;1.10;0.83;;;23.60;68.40;;;;;;5011168;28;20543;-65
2022/07/14 11:20:58;;;;;;;1.77;0.80;;;23.40;67.20;;;;;;5010931;28;20915;-65
2022/07/14 11:23:29;;;;;;;1.13;0.80;;;22.80;69.70;;;;;;5010905;28;20457;-65
2022/07/14 11:25:56;;;;;;;2.30;1.00;;;22.90;71.50;;;;;;5011214;28;20492;-65
2022/07/14 11:28:31;;;;;;;2.00;0.90;;;23.30;69.90;;;;;;5010633;28;20397;-65
2022/07/14 11:31:21;;;;;;;1.47;1.10;;;23.90;67.60;;;;;;5010659;28;20478;-65
2022/07/14 11:36:34;;;;;;;2.33;0.83;;;23.80;66.40;;;;;;5010870;28;20985;-65
2022/07/14 11:39:15;;;;;;;1.23;0.90;;;23.50;65.10;;;;;;5010673;28;20900;-65
2022/07/14 11:42:01;;;;;;;0.90;0.73;;;23.50;66.50;;;;;;5010665;28;20445;-65
2022/07/14 11:44:35;;;;;;;0.83;0.80;;;23.30;65.90;;;;;;5010633;28;20922;-65
2022/07/14 11:47:03;;;;;;;0.80;0.70;;;23.40;67.50;;;;;;5009776;28;20456;-65
2022/07/14 11:49:30;;;;;;;0.83;0.70;;;23.10;66.60;;;;;;5010787;28;20947;-65
2022/07/14 11:51:57;;;;;;;1.63;1.00;;;22.80;67.50;;;;;;5010610;28;20433;-65
2022/07/14 11:54:23;;;;;;;2.17;0.73;;;23.40;68.40;;;;;;5010573;28;20498;-65
2022/07/14 11:56:49;;;;;;;3.90;0.87;;;23.60;67.30;;;;;;5010453;28;20449;-66
2022/07/14 11:59:18;;;;;;;1.37;0.80;;;23.40;66.30;;;;;;5010632;28;20413;-65
2022/07/14 12:01:45;;;;;;;0.70;0.70;;;23.50;65.80;;;;;;5010525;28;20913;-65
2022/07/14 12:04:16;;;;;;;0.90;0.70;;;23.70;66.00;;;;;;5010502;28;20409;-65
2022/07/14 12:06:44;;;;;;;1.83;0.60;;;23.60;63.30;;;;;;5010540;28;20428;-65
2022/07/14 12:09:11;;;;;;;2.07;0.73;;;23.20;62.00;;;;;;5010548;28;20435;-65
2022/07/14 12:11:36;;;;;;;0.73;0.70;;;23.00;63.40;;;;;;5010546;28;20754;-64
2022/07/14 12:14:03;;;;;;;1.23;0.77;;;23.40;64.80;;;;;;5010354;28;20448;-65
2022/07/14 12:16:41;;;;;;;1.00;0.70;;;23.50;64.60;;;;;;5010177;28;20540;-65
2022/07/14 12:19:09;;;;;;;0.70;0.60;;;23.90;63.70;;;;;;5010460;28;20403;-65
2022/07/14 12:21:36;;;;;;;0.97;0.70;;;23.70;62.50;;;;;;5010155;28;20409;-65
2022/07/14 12:24:03;;;;;;;1.30;0.80;;;23.90;61.90;;;;;;5010375;28;20477;-65
2022/07/14 12:26:29;;;;;;;0.70;0.60;;;23.60;61.80;;;;;;5010198;28;20426;-64
2022/07/14 12:28:59;;;;;;;1.27;0.87;;;23.80;62.40;;;;;;5010105;28;20932;-64
2022/07/14 12:31:26;;;;;;;2.20;0.80;;;23.40;60.50;;;;;;5010499;28;20171;-65
2022/07/14 12:33:54;;;;;;;0.80;0.80;;;23.40;61.10;;;;;;4992791;28;20467;-65
2022/07/14 12:36:25;;;;;;;0.73;0.73;;;23.40;60.60;;;;;;5010155;28;20886;-65
2022/07/14 12:38:51;;;;;;;1.67;0.73;;;23.50;61.90;;;;;;5010207;28;20910;-65
2022/07/14 12:41:21;;;;;;;0.90;0.77;;;23.80;63.10;;;;;;5010618;28;20405;-65
2022/07/14 12:43:47;;;;;;;2.10;0.90;;;23.90;63.50;;;;;;5010057;28;20416;-64
2022/07/14 12:46:16;;;;;;;1.20;0.63;;;23.30;63.40;;;;;;5010047;28;20439;-65
2022/07/14 12:48:52;;;;;;;2.00;0.80;;;23.30;64.70;;;;;;5010438;28;20232;-65
2022/07/14 12:51:18;;;;;;;1.43;0.70;;;23.40;64.70;;;;;;5010241;28;20899;-64
2022/07/14 12:54:02;;;;;;;1.10;0.70;;;23.60;64.50;;;;;;5009965;28;20483;-65
2022/07/14 12:56:33;;;;;;;0.70;0.63;;;23.80;63.00;;;;;;5010374;28;20811;-65
2022/07/14 12:59:01;;;;;;;1.47;0.70;;;23.80;63.30;;;;;;5011653;28;20739;-65
2022/07/14 13:01:27;;;;;;;1.03;0.70;;;23.40;62.40;;;;;;5013484;28;20406;-65
2022/07/14 13:04:01;;;;;;;2.70;1.00;;;23.60;63.60;;;;;;5013461;28;20431;-65
2022/07/14 13:06:28;;;;;;;0.80;0.70;;;23.80;62.80;;;;;;5013193;28;20435;-65